sensor_id;sensor_type;location;lat;lon;timestamp;pressure;altitude;pressure_sealevel;temperature;humidity
47104;BME280;32853;52.164;5.400;2023-06-10T00:00:28;101458.84;;;23.88;51.30
47104;BME280;32853;52.164;5.400;2023-06-10T00:02:55;101401.59;;;23.60;50.95
47104;BME280;32853;52.164;5.400;2023-06-10T00:05:21;101430.22;;;23.58;50.84
47104;BME280;32853;52.164;5.400;2023-06-10T00:07:46;101453.50;;;23.67;50.84
47104;BME280;32853;52.164;5.400;2023-06-10T00:10:13;101460.47;;;23.58;50.87
47104;BME280;32853;52.164;5.400;2023-06-10T00:12:38;101462.50;;;23.66;50.85
47104;BME280;32853;52.164;5.400;2023-06-10T00:15:06;101439.00;;;23.28;51.09
47104;BME280;32853;52.164;5.400;2023-06-10T00:17:32;101454.94;;;23.50;50.77
47104;BME280;32853;52.164;5.400;2023-06-10T00:19:58;101450.66;;;23.47;50.69
47104;BME280;32853;52.164;5.400;2023-06-10T00:22:25;101470.81;;;23.52;50.78
47104;BME280;32853;52.164;5.400;2023-06-10T00:24:55;101463.09;;;23.37;50.79
47104;BME280;32853;52.164;5.400;2023-06-10T00:27:28;101467.66;;;23.46;50.49
47104;BME280;32853;52.164;5.400;2023-06-10T00:29:56;101474.19;;;23.54;50.39
47104;BME280;32853;52.164;5.400;2023-06-10T00:32:22;101407.16;;;23.15;50.17
47104;BME280;32853;52.164;5.400;2023-06-10T00:34:47;101463.09;;;23.37;50.43
47104;BME280;32853;52.164;5.400;2023-06-10T00:37:19;101416.19;;;23.03;50.35
47104;BME280;32853;52.164;5.400;2023-06-10T00:39:50;101460.03;;;23.21;50.28
47104;BME280;32853;52.164;5.400;2023-06-10T00:42:15;101458.34;;;23.20;50.25
47104;BME280;32853;52.164;5.400;2023-06-10T00:44:40;101468.13;;;23.31;50.05
47104;BME280;32853;52.164;5.400;2023-06-10T00:47:07;101454.72;;;23.10;50.28
47104;BME280;32853;52.164;5.400;2023-06-10T00:49:33;101449.72;;;23.16;49.72
47104;BME280;32853;52.164;5.400;2023-06-10T00:51:59;101475.44;;;23.17;49.87
47104;BME280;32853;52.164;5.400;2023-06-10T00:54:24;101424.94;;;22.82;49.58
47104;BME280;32853;52.164;5.400;2023-06-10T00:56:51;101469.66;;;23.01;49.70
47104;BME280;32853;52.164;5.400;2023-06-10T00:59:17;101452.84;;;22.89;49.94
47104;BME280;32853;52.164;5.400;2023-06-10T01:01:42;101457.44;;;22.99;49.24
47104;BME280;32853;52.164;5.400;2023-06-10T01:04:08;101447.47;;;23.01;49.33
47104;BME280;32853;52.164;5.400;2023-06-10T01:09:40;101441.16;;;23.02;49.13
47104;BME280;32853;52.164;5.400;2023-06-10T01:14:39;101471.00;;;23.07;49.00
47104;BME280;32853;52.164;5.400;2023-06-10T01:17:10;101480.94;;;23.05;49.46
47104;BME280;32853;52.164;5.400;2023-06-10T01:19:35;101471.75;;;22.98;49.32
47104;BME280;32853;52.164;5.400;2023-06-10T01:22:01;101470.50;;;23.02;49.27
47104;BME280;32853;52.164;5.400;2023-06-10T01:24:28;101431.91;;;22.74;49.34
47104;BME280;32853;52.164;5.400;2023-06-10T01:26:55;101465.72;;;22.84;49.26
47104;BME280;32853;52.164;5.400;2023-06-10T01:29:41;101490.16;;;23.01;49.46
47104;BME280;32853;52.164;5.400;2023-06-10T01:32:27;101474.19;;;22.89;49.81
47104;BME280;32853;52.164;5.400;2023-06-10T01:34:55;101435.81;;;22.47;50.10
47104;BME280;32853;52.164;5.400;2023-06-10T01:37:23;101480.25;;;22.80;49.98
47104;BME280;32853;52.164;5.400;2023-06-10T01:39:50;101451.22;;;22.55;50.05
47104;BME280;32853;52.164;5.400;2023-06-10T01:42:18;101468.88;;;22.56;50.43
47104;BME280;32853;52.164;5.400;2023-06-10T01:44:43;101467.47;;;22.52;50.46
47104;BME280;32853;52.164;5.400;2023-06-10T01:47:12;101470.97;;;22.52;50.85
47104;BME280;32853;52.164;5.400;2023-06-10T01:49:37;101480.38;;;22.68;50.81
47104;BME280;32853;52.164;5.400;2023-06-10T01:52:03;101474.06;;;22.69;50.55
47104;BME280;32853;52.164;5.400;2023-06-10T01:54:28;101479.06;;;22.62;50.94
47104;BME280;32853;52.164;5.400;2023-06-10T01:56:54;101424.09;;;22.27;51.18
47104;BME280;32853;52.164;5.400;2023-06-10T01:59:19;101462.84;;;22.43;51.29
47104;BME280;32853;52.164;5.400;2023-06-10T02:01:44;101436.47;;;22.17;51.87
47104;BME280;32853;52.164;5.400;2023-06-10T02:04:10;101480.88;;;22.39;51.89
47104;BME280;32853;52.164;5.400;2023-06-10T02:06:40;101481.84;;;22.49;51.89
47104;BME280;32853;52.164;5.400;2023-06-10T02:09:06;101429.78;;;22.12;52.34
47104;BME280;32853;52.164;5.400;2023-06-10T02:11:31;101464.44;;;22.23;52.61
47104;BME280;32853;52.164;5.400;2023-06-10T02:13:57;101485.16;;;22.42;52.37
47104;BME280;32853;52.164;5.400;2023-06-10T02:16:22;101425.06;;;22.15;52.34
47104;BME280;32853;52.164;5.400;2023-06-10T02:18:51;101478.34;;;22.49;52.65
47104;BME280;32853;52.164;5.400;2023-06-10T02:21:17;101468.91;;;22.33;52.95
47104;BME280;32853;52.164;5.400;2023-06-10T02:23:42;101430.25;;;22.17;52.92
47104;BME280;32853;52.164;5.400;2023-06-10T02:26:23;101425.88;;;22.04;53.37
47104;BME280;32853;52.164;5.400;2023-06-10T02:28:52;101425.88;;;22.04;53.18
47104;BME280;32853;52.164;5.400;2023-06-10T02:31:20;101475.69;;;22.26;53.46
47104;BME280;32853;52.164;5.400;2023-06-10T02:33:46;101496.88;;;22.39;54.02
47104;BME280;32853;52.164;5.400;2023-06-10T02:36:12;101498.94;;;22.24;54.25
47104;BME280;32853;52.164;5.400;2023-06-10T02:38:39;101488.22;;;22.02;54.51
47104;BME280;32853;52.164;5.400;2023-06-10T02:41:10;101445.84;;;21.88;54.28
47104;BME280;32853;52.164;5.400;2023-06-10T02:43:39;101503.81;;;22.19;54.84
47104;BME280;32853;52.164;5.400;2023-06-10T02:46:09;101436.88;;;21.78;55.01
47104;BME280;32853;52.164;5.400;2023-06-10T02:48:47;101449.44;;;21.64;55.26
47104;BME280;32853;52.164;5.400;2023-06-10T02:51:15;101497.28;;;21.88;55.91
47104;BME280;32853;52.164;5.400;2023-06-10T02:53:54;101502.25;;;21.93;55.94
47104;BME280;32853;52.164;5.400;2023-06-10T02:56:31;101473.28;;;21.66;56.56
47104;BME280;32853;52.164;5.400;2023-06-10T02:59:04;101487.84;;;21.73;56.70
47104;BME280;32853;52.164;5.400;2023-06-10T03:01:38;101496.31;;;21.78;57.34
47104;BME280;32853;52.164;5.400;2023-06-10T03:04:22;101448.78;;;21.50;57.40
47104;BME280;32853;52.164;5.400;2023-06-10T03:06:51;101500.28;;;21.84;57.15
47104;BME280;32853;52.164;5.400;2023-06-10T03:09:20;101482.34;;;21.63;58.06
47104;BME280;32853;52.164;5.400;2023-06-10T03:14:45;101463.88;;;21.38;58.67
47104;BME280;32853;52.164;5.400;2023-06-10T03:17:11;101510.41;;;21.56;59.39
47104;BME280;32853;52.164;5.400;2023-06-10T03:19:36;101497.47;;;21.63;59.43
47104;BME280;32853;52.164;5.400;2023-06-10T03:22:14;101437.66;;;21.21;59.28
47104;BME280;32853;52.164;5.400;2023-06-10T03:24:43;101447.75;;;21.28;59.70
47104;BME280;32853;52.164;5.400;2023-06-10T03:27:12;101442.53;;;21.27;60.07
47104;BME280;32853;52.164;5.400;2023-06-10T03:29:40;101498.09;;;21.66;59.90
47104;BME280;32853;52.164;5.400;2023-06-10T03:32:07;101499.47;;;21.24;62.13
47104;BME280;32853;52.164;5.400;2023-06-10T03:34:33;101500.38;;;21.36;61.38
47104;BME280;32853;52.164;5.400;2023-06-10T03:36:59;101504.59;;;21.14;62.91
47104;BME280;32853;52.164;5.400;2023-06-10T03:39:25;101467.06;;;20.82;63.96
47104;BME280;32853;52.164;5.400;2023-06-10T03:41:54;101494.50;;;20.96;64.37
47104;BME280;32853;52.164;5.400;2023-06-10T03:44:19;101509.75;;;21.05;64.21
47104;BME280;32853;52.164;5.400;2023-06-10T03:46:47;101516.94;;;21.15;64.04
47104;BME280;32853;52.164;5.400;2023-06-10T03:49:12;101467.41;;;20.78;64.49
47104;BME280;32853;52.164;5.400;2023-06-10T03:51:38;101513.06;;;21.08;64.36
47104;BME280;32853;52.164;5.400;2023-06-10T03:54:03;101496.75;;;20.89;65.05
47104;BME280;32853;52.164;5.400;2023-06-10T03:56:28;101510.69;;;20.80;65.58
47104;BME280;32853;52.164;5.400;2023-06-10T03:58:54;101500.53;;;20.98;65.09
47104;BME280;32853;52.164;5.400;2023-06-10T04:01:20;101494.94;;;20.89;65.83
47104;BME280;32853;52.164;5.400;2023-06-10T04:03:47;101449.88;;;20.51;66.33
47104;BME280;32853;52.164;5.400;2023-06-10T04:06:14;101513.97;;;20.83;66.71
47104;BME280;32853;52.164;5.400;2023-06-10T04:08:39;101529.16;;;20.94;67.09
47104;BME280;32853;52.164;5.400;2023-06-10T04:11:14;101514.75;;;20.73;67.81
47104;BME280;32853;52.164;5.400;2023-06-10T04:13:40;101514.47;;;20.65;68.46
47104;BME280;32853;52.164;5.400;2023-06-10T04:16:08;101507.53;;;20.75;68.34
47104;BME280;32853;52.164;5.400;2023-06-10T04:18:34;101509.88;;;20.67;69.12
47104;BME280;32853;52.164;5.400;2023-06-10T04:21:01;101529.31;;;20.80;68.85
47104;BME280;32853;52.164;5.400;2023-06-10T04:23:26;101537.81;;;20.72;69.68
47104;BME280;32853;52.164;5.400;2023-06-10T04:25:51;101520.06;;;20.73;69.84
47104;BME280;32853;52.164;5.400;2023-06-10T04:28:17;101524.13;;;20.66;70.22
47104;BME280;32853;52.164;5.400;2023-06-10T04:30:42;101530.81;;;20.71;70.17
47104;BME280;32853;52.164;5.400;2023-06-10T04:33:07;101514.56;;;20.50;70.82
47104;BME280;32853;52.164;5.400;2023-06-10T04:35:34;101426.22;;;19.97;71.34
47104;BME280;32853;52.164;5.400;2023-06-10T04:37:59;101484.28;;;20.40;71.74
47104;BME280;32853;52.164;5.400;2023-06-10T04:40:28;101538.56;;;20.74;71.96
47104;BME280;32853;52.164;5.400;2023-06-10T04:42:59;101528.91;;;20.60;72.94
47104;BME280;32853;52.164;5.400;2023-06-10T04:45:24;101529.16;;;20.45;73.40
47104;BME280;32853;52.164;5.400;2023-06-10T04:47:50;101527.00;;;20.50;73.76
47104;BME280;32853;52.164;5.400;2023-06-10T04:50:15;101542.72;;;20.66;73.47
47104;BME280;32853;52.164;5.400;2023-06-10T04:52:42;101550.06;;;20.75;73.65
47104;BME280;32853;52.164;5.400;2023-06-10T04:55:16;101551.22;;;20.71;74.11
47104;BME280;32853;52.164;5.400;2023-06-10T04:57:42;101550.69;;;20.78;74.20
47104;BME280;32853;52.164;5.400;2023-06-10T05:00:09;101553.13;;;20.81;74.70
47104;BME280;32853;52.164;5.400;2023-06-10T05:02:48;101557.19;;;20.62;76.37
47104;BME280;32853;52.164;5.400;2023-06-10T05:05:16;101478.56;;;20.21;77.16
47104;BME280;32853;52.164;5.400;2023-06-10T05:07:51;101545.72;;;20.74;75.78
47104;BME280;32853;52.164;5.400;2023-06-10T05:10:17;101558.19;;;20.97;75.52
47104;BME280;32853;52.164;5.400;2023-06-10T05:12:45;101508.25;;;20.77;75.46
47104;BME280;32853;52.164;5.400;2023-06-10T05:15:29;101496.25;;;20.71;75.48
47104;BME280;32853;52.164;5.400;2023-06-10T05:17:56;101554.22;;;21.03;75.48
47104;BME280;32853;52.164;5.400;2023-06-10T05:20:22;101540.03;;;21.15;75.02
47104;BME280;32853;52.164;5.400;2023-06-10T05:22:48;101533.44;;;21.21;74.51
47104;BME280;32853;52.164;5.400;2023-06-10T05:25:18;101546.72;;;21.33;75.00
47104;BME280;32853;52.164;5.400;2023-06-10T05:27:45;101497.66;;;21.01;75.14
47104;BME280;32853;52.164;5.400;2023-06-10T05:30:13;101550.56;;;21.29;75.38
47104;BME280;32853;52.164;5.400;2023-06-10T05:32:43;101555.44;;;21.23;76.58
47104;BME280;32853;52.164;5.400;2023-06-10T05:35:08;101550.97;;;21.23;75.82
47104;BME280;32853;52.164;5.400;2023-06-10T05:37:34;101539.78;;;21.07;76.36
47104;BME280;32853;52.164;5.400;2023-06-10T05:40:00;101560.00;;;21.33;76.23
47104;BME280;32853;52.164;5.400;2023-06-10T05:42:25;101561.75;;;21.45;76.46
47104;BME280;32853;52.164;5.400;2023-06-10T05:44:50;101553.50;;;21.37;76.66
47104;BME280;32853;52.164;5.400;2023-06-10T05:47:16;101525.97;;;21.50;75.04
47104;BME280;32853;52.164;5.400;2023-06-10T05:49:48;101565.13;;;21.71;74.97
47104;BME280;32853;52.164;5.400;2023-06-10T05:52:15;101564.06;;;21.74;73.91
47104;BME280;32853;52.164;5.400;2023-06-10T05:54:40;101543.66;;;21.51;73.47
47104;BME280;32853;52.164;5.400;2023-06-10T05:57:05;101562.78;;;21.56;74.15
47104;BME280;32853;52.164;5.400;2023-06-10T05:59:31;101525.13;;;21.49;73.96
47104;BME280;32853;52.164;5.400;2023-06-10T06:01:58;101562.47;;;21.71;73.09
47104;BME280;32853;52.164;5.400;2023-06-10T06:04:24;101546.75;;;21.44;73.66
47104;BME280;32853;52.164;5.400;2023-06-10T06:06:58;101562.03;;;21.78;72.82
47104;BME280;32853;52.164;5.400;2023-06-10T06:09:26;101484.88;;;21.54;71.98
47104;BME280;32853;52.164;5.400;2023-06-10T06:11:56;101551.91;;;22.05;70.95
47104;BME280;32853;52.164;5.400;2023-06-10T06:14:21;101546.84;;;22.02;69.84
47104;BME280;32853;52.164;5.400;2023-06-10T06:16:47;101566.16;;;22.28;69.39
47104;BME280;32853;52.164;5.400;2023-06-10T06:19:12;101555.63;;;22.38;69.66
47104;BME280;32853;52.164;5.400;2023-06-10T06:21:37;101571.28;;;22.42;68.96
47104;BME280;32853;52.164;5.400;2023-06-10T06:24:03;101476.31;;;21.84;69.17
47104;BME280;32853;52.164;5.400;2023-06-10T06:26:28;101514.09;;;22.24;68.82
47104;BME280;32853;52.164;5.400;2023-06-10T06:28:53;101517.25;;;22.18;68.42
47104;BME280;32853;52.164;5.400;2023-06-10T06:31:19;101563.16;;;22.44;68.01
47104;BME280;32853;52.164;5.400;2023-06-10T06:33:44;101550.44;;;22.70;68.03
47104;BME280;32853;52.164;5.400;2023-06-10T06:36:16;101523.19;;;22.66;66.85
47104;BME280;32853;52.164;5.400;2023-06-10T06:38:42;101465.53;;;22.31;65.92
47104;BME280;32853;52.164;5.400;2023-06-10T06:41:07;101488.38;;;22.68;64.47
47104;BME280;32853;52.164;5.400;2023-06-10T06:43:33;101532.16;;;22.87;64.00
47104;BME280;32853;52.164;5.400;2023-06-10T06:45:59;101472.41;;;22.45;64.37
47104;BME280;32853;52.164;5.400;2023-06-10T06:48:24;101556.84;;;23.12;63.97
47104;BME280;32853;52.164;5.400;2023-06-10T06:50:51;101513.09;;;22.92;64.08
47104;BME280;32853;52.164;5.400;2023-06-10T06:53:17;101423.84;;;22.53;63.17
47104;BME280;32853;52.164;5.400;2023-06-10T06:55:42;101563.97;;;23.66;62.35
47104;BME280;32853;52.164;5.400;2023-06-10T06:58:07;101495.34;;;23.13;62.28
47104;BME280;32853;52.164;5.400;2023-06-10T07:00:36;101464.72;;;23.29;61.66
47104;BME280;32853;52.164;5.400;2023-06-10T07:03:03;101562.06;;;24.10;61.04
47104;BME280;32853;52.164;5.400;2023-06-10T07:05:29;101440.31;;;23.33;60.40
47104;BME280;32853;52.164;5.400;2023-06-10T07:07:57;101542.09;;;23.93;59.74
47104;BME280;32853;52.164;5.400;2023-06-10T07:10:24;101553.19;;;23.88;59.37
47104;BME280;32853;52.164;5.400;2023-06-10T07:12:50;101542.56;;;23.98;59.12
47104;BME280;32853;52.164;5.400;2023-06-10T07:15:21;101460.81;;;23.65;58.48
47104;BME280;32853;52.164;5.400;2023-06-10T07:17:46;101565.34;;;24.23;57.34
47104;BME280;32853;52.164;5.400;2023-06-10T07:20:12;101571.19;;;24.07;57.45
47104;BME280;32853;52.164;5.400;2023-06-10T07:22:42;101468.06;;;23.42;57.63
47104;BME280;32853;52.164;5.400;2023-06-10T07:25:09;101510.78;;;23.95;58.00
47104;BME280;32853;52.164;5.400;2023-06-10T07:27:35;101568.03;;;24.23;57.86
47104;BME280;32853;52.164;5.400;2023-06-10T07:30:03;101544.38;;;24.39;57.48
47104;BME280;32853;52.164;5.400;2023-06-10T07:32:29;101539.28;;;24.67;56.47
47104;BME280;32853;52.164;5.400;2023-06-10T07:34:55;101510.56;;;24.69;56.33
47104;BME280;32853;52.164;5.400;2023-06-10T07:37:20;101569.59;;;25.17;55.53
47104;BME280;32853;52.164;5.400;2023-06-10T07:39:45;101572.88;;;25.30;55.95
47104;BME280;32853;52.164;5.400;2023-06-10T07:42:11;101563.56;;;25.44;54.46
47104;BME280;32853;52.164;5.400;2023-06-10T07:44:36;101441.41;;;24.54;54.32
47104;BME280;32853;52.164;5.400;2023-06-10T07:47:03;101525.06;;;25.26;53.44
47104;BME280;32853;52.164;5.400;2023-06-10T07:49:28;101576.09;;;25.34;53.79
47104;BME280;32853;52.164;5.400;2023-06-10T07:51:55;101568.22;;;25.52;53.67
47104;BME280;32853;52.164;5.400;2023-06-10T07:54:26;101522.00;;;25.40;53.81
47104;BME280;32853;52.164;5.400;2023-06-10T07:57:21;101572.19;;;25.96;53.09
47104;BME280;32853;52.164;5.400;2023-06-10T07:59:47;101398.44;;;25.06;53.21
47104;BME280;32853;52.164;5.400;2023-06-10T08:02:18;101575.09;;;26.41;52.81
47104;BME280;32853;52.164;5.400;2023-06-10T08:04:49;101530.63;;;26.39;52.72
47104;BME280;32853;52.164;5.400;2023-06-10T08:07:25;101546.75;;;26.66;51.19
47104;BME280;32853;52.164;5.400;2023-06-10T08:09:51;101534.84;;;26.69;51.25
47104;BME280;32853;52.164;5.400;2023-06-10T08:12:16;101524.97;;;26.69;51.28
47104;BME280;32853;52.164;5.400;2023-06-10T08:14:42;101574.81;;;27.09;51.11
47104;BME280;32853;52.164;5.400;2023-06-10T08:17:14;101567.69;;;27.17;51.21
47104;BME280;32853;52.164;5.400;2023-06-10T08:19:42;101572.22;;;27.35;51.03
47104;BME280;32853;52.164;5.400;2023-06-10T08:22:08;101530.38;;;27.14;48.90
47104;BME280;32853;52.164;5.400;2023-06-10T08:24:33;101570.81;;;27.48;48.96
47104;BME280;32853;52.164;5.400;2023-06-10T08:26:59;101567.69;;;27.71;47.23
47104;BME280;32853;52.164;5.400;2023-06-10T08:29:25;101548.81;;;27.63;47.60
47104;BME280;32853;52.164;5.400;2023-06-10T08:31:50;101579.88;;;27.47;46.66
47104;BME280;32853;52.164;5.400;2023-06-10T08:34:15;101549.16;;;27.14;47.42
47104;BME280;32853;52.164;5.400;2023-06-10T08:36:41;101527.16;;;27.11;47.40
47104;BME280;32853;52.164;5.400;2023-06-10T08:39:06;101567.47;;;27.64;47.41
47104;BME280;32853;52.164;5.400;2023-06-10T08:41:35;101561.41;;;27.80;46.54
47104;BME280;32853;52.164;5.400;2023-06-10T08:44:09;101571.56;;;27.68;46.69
47104;BME280;32853;52.164;5.400;2023-06-10T08:46:36;101566.91;;;27.96;46.09
47104;BME280;32853;52.164;5.400;2023-06-10T08:49:19;101562.31;;;28.15;45.50
47104;BME280;32853;52.164;5.400;2023-06-10T08:51:50;101548.88;;;27.53;45.51
47104;BME280;32853;52.164;5.400;2023-06-10T08:54:18;101573.72;;;27.83;46.35
47104;BME280;32853;52.164;5.400;2023-06-10T08:56:49;101563.50;;;28.12;45.45
47104;BME280;32853;52.164;5.400;2023-06-10T08:59:27;101572.81;;;28.44;45.50
47104;BME280;32853;52.164;5.400;2023-06-10T09:02:05;101514.22;;;28.29;45.19
47104;BME280;32853;52.164;5.400;2023-06-10T09:04:34;101571.38;;;29.00;45.22
47104;BME280;32853;52.164;5.400;2023-06-10T09:07:03;101517.22;;;28.69;44.44
47104;BME280;32853;52.164;5.400;2023-06-10T09:09:35;101543.81;;;28.29;44.27
47104;BME280;32853;52.164;5.400;2023-06-10T09:12:00;101574.69;;;28.85;43.56
47104;BME280;32853;52.164;5.400;2023-06-10T09:14:32;101576.38;;;29.29;43.08
47104;BME280;32853;52.164;5.400;2023-06-10T09:16:58;101539.56;;;29.03;43.78
47104;BME280;32853;52.164;5.400;2023-06-10T09:19:25;101519.81;;;28.86;43.48
47104;BME280;32853;52.164;5.400;2023-06-10T09:21:58;101522.28;;;28.63;42.52
47104;BME280;32853;52.164;5.400;2023-06-10T09:24:32;101567.06;;;29.07;42.19
47104;BME280;32853;52.164;5.400;2023-06-10T09:27:05;101567.13;;;29.47;42.04
47104;BME280;32853;52.164;5.400;2023-06-10T09:29:54;101388.19;;;28.67;41.59
47104;BME280;32853;52.164;5.400;2023-06-10T09:32:21;101565.66;;;29.77;42.69
47104;BME280;32853;52.164;5.400;2023-06-10T09:34:47;101558.22;;;29.96;43.21
47104;BME280;32853;52.164;5.400;2023-06-10T09:37:19;101574.72;;;30.01;41.90
47104;BME280;32853;52.164;5.400;2023-06-10T09:40:01;101490.97;;;29.86;41.66
47104;BME280;32853;52.164;5.400;2023-06-10T09:42:27;101552.63;;;30.30;40.59
47104;BME280;32853;52.164;5.400;2023-06-10T09:44:52;101568.00;;;30.21;40.34
47104;BME280;32853;52.164;5.400;2023-06-10T09:47:24;101568.00;;;30.77;41.51
47104;BME280;32853;52.164;5.400;2023-06-10T09:49:50;101476.31;;;29.80;40.17
47104;BME280;32853;52.164;5.400;2023-06-10T09:52:28;101494.16;;;29.82;40.31
47104;BME280;32853;52.164;5.400;2023-06-10T09:55:01;101479.03;;;29.48;40.16
47104;BME280;32853;52.164;5.400;2023-06-10T09:57:35;101527.38;;;30.06;39.68
47104;BME280;32853;52.164;5.400;2023-06-10T10:00:07;101563.97;;;30.17;38.96
47104;BME280;32853;52.164;5.400;2023-06-10T10:02:50;101490.09;;;30.02;38.79
47104;BME280;32853;52.164;5.400;2023-06-10T10:05:17;101523.72;;;30.47;38.20
47104;BME280;32853;52.164;5.400;2023-06-10T10:07:49;101560.47;;;30.48;38.21
47104;BME280;32853;52.164;5.400;2023-06-10T10:10:23;101562.88;;;30.90;37.24
47104;BME280;32853;52.164;5.400;2023-06-10T10:12:55;101551.78;;;31.16;36.67
47104;BME280;32853;52.164;5.400;2023-06-10T10:15:38;101549.03;;;31.24;36.83
47104;BME280;32853;52.164;5.400;2023-06-10T10:18:17;101448.44;;;30.60;36.84
47104;BME280;32853;52.164;5.400;2023-06-10T10:20:50;101446.06;;;30.57;36.94
47104;BME280;32853;52.164;5.400;2023-06-10T10:23:43;101549.69;;;30.95;35.70
47104;BME280;32853;52.164;5.400;2023-06-10T10:26:13;101545.75;;;31.06;36.87
47104;BME280;32853;52.164;5.400;2023-06-10T10:28:46;101554.84;;;31.36;35.88
47104;BME280;32853;52.164;5.400;2023-06-10T10:31:16;101432.13;;;30.45;34.39
47104;BME280;32853;52.164;5.400;2023-06-10T10:34:13;101519.22;;;31.09;33.84
47104;BME280;32853;52.164;5.400;2023-06-10T10:36:40;101550.88;;;31.23;32.69
47104;BME280;32853;52.164;5.400;2023-06-10T10:39:06;101524.38;;;31.19;33.79
47104;BME280;32853;52.164;5.400;2023-06-10T10:41:32;101482.50;;;31.15;33.93
47104;BME280;32853;52.164;5.400;2023-06-10T10:43:59;101533.13;;;31.52;32.92
47104;BME280;32853;52.164;5.400;2023-06-10T10:46:25;101554.59;;;31.68;32.67
47104;BME280;32853;52.164;5.400;2023-06-10T10:48:54;101525.94;;;31.59;33.27
47104;BME280;32853;52.164;5.400;2023-06-10T10:51:23;101534.91;;;31.83;33.49
47104;BME280;32853;52.164;5.400;2023-06-10T10:54:13;101531.22;;;32.13;32.60
47104;BME280;32853;52.164;5.400;2023-06-10T10:56:38;101488.09;;;31.97;32.99
47104;BME280;32853;52.164;5.400;2023-06-10T10:59:19;101482.78;;;32.03;31.14
47104;BME280;32853;52.164;5.400;2023-06-10T11:01:45;101521.16;;;32.51;31.69
47104;BME280;32853;52.164;5.400;2023-06-10T11:04:12;101455.63;;;32.12;31.12
47104;BME280;32853;52.164;5.400;2023-06-10T11:06:37;101526.13;;;32.33;29.56
47104;BME280;32853;52.164;5.400;2023-06-10T11:09:26;101499.69;;;32.05;29.49
47104;BME280;32853;52.164;5.400;2023-06-10T11:11:59;101484.75;;;32.09;29.68
47104;BME280;32853;52.164;5.400;2023-06-10T11:14:29;101523.34;;;32.03;31.31
47104;BME280;32853;52.164;5.400;2023-06-10T11:17:18;101497.50;;;32.01;31.80
47104;BME280;32853;52.164;5.400;2023-06-10T11:19:44;101462.41;;;31.78;31.09
47104;BME280;32853;52.164;5.400;2023-06-10T11:22:17;101434.50;;;31.63;31.53
47104;BME280;32853;52.164;5.400;2023-06-10T11:24:51;101456.00;;;31.79;30.51
47104;BME280;32853;52.164;5.400;2023-06-10T11:27:52;101489.13;;;32.11;30.63
47104;BME280;32853;52.164;5.400;2023-06-10T11:30:19;101520.97;;;32.53;31.06
47104;BME280;32853;52.164;5.400;2023-06-10T11:32:50;101511.56;;;32.49;30.30
47104;BME280;32853;52.164;5.400;2023-06-10T11:35:18;101486.31;;;32.63;30.80
47104;BME280;32853;52.164;5.400;2023-06-10T11:37:43;101487.16;;;32.63;30.63
47104;BME280;32853;52.164;5.400;2023-06-10T11:40:10;101433.44;;;32.16;31.24
47104;BME280;32853;52.164;5.400;2023-06-10T11:42:40;101448.25;;;32.35;31.37
47104;BME280;32853;52.164;5.400;2023-06-10T11:45:06;101461.00;;;32.71;31.03
47104;BME280;32853;52.164;5.400;2023-06-10T11:47:33;101505.50;;;33.19;30.73
47104;BME280;32853;52.164;5.400;2023-06-10T11:50:27;101412.59;;;33.04;29.99
47104;BME280;32853;52.164;5.400;2023-06-10T11:52:52;101497.41;;;33.68;30.59
47104;BME280;32853;52.164;5.400;2023-06-10T11:55:20;101499.84;;;33.35;31.01
47104;BME280;32853;52.164;5.400;2023-06-10T11:57:46;101491.94;;;33.62;29.94
47104;BME280;32853;52.164;5.400;2023-06-10T12:00:16;101403.47;;;33.11;30.24
47104;BME280;32853;52.164;5.400;2023-06-10T12:02:41;101436.25;;;33.38;30.16
47104;BME280;32853;52.164;5.400;2023-06-10T12:05:14;101455.53;;;33.49;29.70
47104;BME280;32853;52.164;5.400;2023-06-10T12:07:39;101453.16;;;33.68;30.31
47104;BME280;32853;52.164;5.400;2023-06-10T12:10:05;101480.94;;;33.98;29.48
47104;BME280;32853;52.164;5.400;2023-06-10T12:12:37;101448.63;;;33.75;29.32
47104;BME280;32853;52.164;5.400;2023-06-10T12:15:02;101452.09;;;33.62;29.58
47104;BME280;32853;52.164;5.400;2023-06-10T12:20:01;101469.31;;;34.04;29.41
47104;BME280;32853;52.164;5.400;2023-06-10T12:22:40;101471.69;;;34.20;29.44
47104;BME280;32853;52.164;5.400;2023-06-10T12:25:07;101466.94;;;34.35;29.44
47104;BME280;32853;52.164;5.400;2023-06-10T12:27:40;101403.28;;;33.97;29.17
47104;BME280;32853;52.164;5.400;2023-06-10T12:30:19;101448.34;;;33.91;28.79
47104;BME280;32853;52.164;5.400;2023-06-10T12:32:50;101452.50;;;33.59;28.88
47104;BME280;32853;52.164;5.400;2023-06-10T12:35:25;101470.19;;;33.34;29.49
47104;BME280;32853;52.164;5.400;2023-06-10T12:37:56;101464.63;;;33.20;30.53
47104;BME280;32853;52.164;5.400;2023-06-10T12:40:26;101438.44;;;33.28;29.76
47104;BME280;32853;52.164;5.400;2023-06-10T12:42:53;101450.31;;;33.27;29.53
47104;BME280;32853;52.164;5.400;2023-06-10T12:45:32;101466.59;;;33.76;29.65
47104;BME280;32853;52.164;5.400;2023-06-10T12:50:40;101425.34;;;33.10;29.42
47104;BME280;32853;52.164;5.400;2023-06-10T12:53:06;101470.47;;;33.67;29.16
47104;BME280;32853;52.164;5.400;2023-06-10T12:55:33;101447.91;;;33.88;29.41
47104;BME280;32853;52.164;5.400;2023-06-10T12:58:02;101446.81;;;33.82;29.47
47104;BME280;32853;52.164;5.400;2023-06-10T13:00:28;101405.59;;;34.00;29.41
47104;BME280;32853;52.164;5.400;2023-06-10T13:02:57;101407.97;;;34.16;29.15
47104;BME280;32853;52.164;5.400;2023-06-10T13:05:22;101333.59;;;33.69;28.95
47104;BME280;32853;52.164;5.400;2023-06-10T13:07:48;101445.16;;;34.22;28.99
47104;BME280;32853;52.164;5.400;2023-06-10T13:10:15;101416.03;;;34.38;28.43
47104;BME280;32853;52.164;5.400;2023-06-10T13:12:42;101455.66;;;34.86;28.94